Time;durP1;ratioP1;P1;durP2;ratioP2;P2;SDS_P1;SDS_P2;PMS_P1;PMS_P2;Temp;Humidity;BMP_temperature;BMP_pressure;BME280_temperature;BME280_humidity;BME280_pressure;Samples;Min_cycle;Max_cycle;Signal;HPM_P1;HPM_P2
2022/12/22 03:28:14;;;;;;;38.70;22.10;;;;;;;4.13;88.39;100001.17;103102;1326;37906;-71
2022/12/22 03:30:55;;;;;;;34.60;21.20;;;;;;;4.14;88.47;99999.95;103107;1326;37142;-73
2022/12/22 03:33:29;;;;;;;35.40;21.90;;;;;;;4.16;88.60;99999.56;103216;1325;37133;-72
2022/12/22 03:36:04;;;;;;;38.70;22.90;;;;;;;4.17;88.69;99999.20;103112;1326;37128;-72
2022/12/22 03:38:38;;;;;;;39.40;21.90;;;;;;;4.19;88.36;100003.65;102976;1329;187675;-75
2022/12/22 03:46:29;;;;;;;37.40;21.90;;;;;;;4.22;88.44;100008.44;103131;1326;36952;-74
2022/12/22 03:47:04;;;;;;;43.20;24.70;;;;;;;4.25;88.30;100006.83;103132;1326;37493;-72
2022/12/22 03:49:38;;;;;;;43.60;24.70;;;;;;;4.26;88.48;99999.39;103130;1329;38329;-72
2022/12/22 03:52:12;;;;;;;43.50;24.70;;;;;;;4.26;88.67;100000.77;103125;1331;37108;-73
2022/12/22 03:54:48;;;;;;;39.70;23.40;;;;;;;4.24;88.38;99999.42;103189;1326;36938;-72
2022/12/22 03:57:27;;;;;;;38.20;23.20;;;;;;;4.23;88.24;99997.89;103184;1329;37229;-73
2022/12/22 04:00:02;;;;;;;37.50;21.90;;;;;;;4.22;88.31;99992.20;103159;1326;36135;-74
2022/12/22 04:02:39;;;;;;;41.00;23.30;;;;;;;4.22;88.19;99986.00;103186;1325;37638;-73
2022/12/22 04:05:15;;;;;;;42.80;23.40;;;;;;;4.25;88.43;99982.34;103166;1329;37095;-73
2022/12/22 04:07:50;;;;;;;39.50;24.30;;;;;;;4.29;88.45;99980.34;103152;1330;37117;-73
2022/12/22 04:13:18;;;;;;;35.10;21.70;;;;;;;4.28;88.22;99969.48;103105;1326;37197;-72
2022/12/22 04:15:57;;;;;;;36.60;22.00;;;;;;;4.29;88.35;99971.19;103097;1327;37549;-73
2022/12/22 04:18:32;;;;;;;;;;;;;;;4.32;88.12;99972.86;103138;1329;37188;-74
2022/12/22 04:21:12;;;;;;;39.40;22.50;;;;;;;4.30;88.44;99970.48;103086;1326;37350;-74
2022/12/22 04:23:50;;;;;;;38.00;23.80;;;;;;;4.33;88.39;99968.51;103098;1329;37289;-74
2022/12/22 04:26:25;;;;;;;39.40;23.90;;;;;;;4.35;88.21;99960.88;103104;1326;37222;-72
2022/12/22 04:28:59;;;;;;;37.50;23.60;;;;;;;4.36;88.27;99955.52;103096;1330;37154;-72
2022/12/22 04:31:34;;;;;;;38.10;23.80;;;;;;;4.35;88.02;99956.21;103110;1329;37194;-73
2022/12/22 04:34:08;;;;;;;34.80;22.20;;;;;;;4.32;87.72;99965.44;103093;1330;37387;-73
2022/12/22 04:36:43;;;;;;;38.20;23.30;;;;;;;4.28;87.80;99960.67;103053;1329;37097;-73
2022/12/22 04:39:18;;;;;;;38.50;24.00;;;;;;;4.32;88.28;99957.14;103124;1328;37254;-72
2022/12/22 04:41:59;;;;;;;37.40;21.80;;;;;;;4.35;88.26;99956.06;103193;1329;38350;-73
2022/12/22 04:44:39;;;;;;;37.70;22.30;;;;;;;4.35;88.21;99959.69;103165;1329;37755;-74
2022/12/22 04:47:18;;;;;;;38.40;22.00;;;;;;;4.36;88.26;99957.41;103256;1329;38407;-73
2022/12/22 04:49:54;;;;;;;38.60;23.70;;;;;;;4.34;88.19;99954.69;103155;1326;37407;-73
2022/12/22 04:52:30;;;;;;;36.60;22.00;;;;;;;4.34;88.12;99947.42;103223;1326;37295;-73
2022/12/22 04:55:05;;;;;;;32.30;21.20;;;;;;;4.37;88.18;99936.84;103169;1329;37126;-75
2022/12/22 04:57:39;;;;;;;38.50;22.30;;;;;;;4.40;88.21;99932.11;103172;1326;36201;-73
2022/12/22 05:00:17;;;;;;;39.10;23.10;;;;;;;4.41;88.16;99932.79;103124;1329;37450;-75
2022/12/22 05:02:52;;;;;;;37.50;21.90;;;;;;;4.37;88.14;99932.70;103134;1326;37901;-73
2022/12/22 05:05:26;;;;;;;36.90;21.50;;;;;;;4.33;88.12;99932.08;103092;1329;38347;-73
2022/12/22 05:08:00;;;;;;;37.80;22.90;;;;;;;4.31;88.36;99930.90;102995;1329;175014;-69
2022/12/22 05:10:35;;;;;;;34.20;21.50;;;;;;;4.34;88.10;99937.08;103108;1329;37278;-71
2022/12/22 05:13:11;;;;;;;37.00;21.80;;;;;;;4.34;88.18;99937.77;102966;1329;174763;-72
2022/12/22 05:15:48;;;;;;;36.50;21.90;;;;;;;4.36;88.10;99933.75;102976;1329;176241;-73
2022/12/22 05:18:29;;;;;;;40.30;24.20;;;;;;;4.37;88.41;99937.52;103099;1326;37238;-72
2022/12/22 05:21:11;;;;;;;38.00;22.80;;;;;;;4.39;88.22;99940.09;103109;1325;37217;-72
2022/12/22 05:23:45;;;;;;;34.40;20.80;;;;;;;4.42;88.36;99942.27;103168;1329;36921;-72
2022/12/22 05:26:21;;;;;;;32.60;21.00;;;;;;;4.43;88.51;99937.94;103139;1329;37243;-74
2022/12/22 05:28:58;;;;;;;34.00;21.70;;;;;;;4.45;88.28;99932.54;103148;1325;38920;-73
2022/12/22 05:31:40;;;;;;;34.60;22.10;;;;;;;4.51;88.29;99937.95;103129;1314;37116;-73
2022/12/22 05:34:16;;;;;;;37.70;23.50;;;;;;;4.56;88.47;99942.15;103169;1326;37368;-73
2022/12/22 05:36:55;;;;;;;36.00;21.60;;;;;;;4.57;88.11;99940.91;103197;1329;37260;-74
2022/12/22 05:39:29;;;;;;;35.70;21.10;;;;;;;4.52;87.80;99942.23;103138;1329;37205;-74
2022/12/22 05:42:09;;;;;;;32.50;21.10;;;;;;;4.51;88.05;99938.45;103133;1327;37314;-72
2022/12/22 05:44:48;;;;;;;35.60;22.80;;;;;;;4.50;87.92;99936.57;103022;1326;175017;-74
2022/12/22 05:47:27;;;;;;;37.60;23.60;;;;;;;4.51;87.97;99933.45;103092;1327;37151;-74
2022/12/22 05:50:04;;;;;;;35.30;22.60;;;;;;;4.50;87.94;99935.55;103125;1329;38283;-71
2022/12/22 05:52:38;;;;;;;33.50;21.20;;;;;;;4.47;87.94;99938.05;103104;1329;38308;-73
2022/12/22 05:55:15;;;;;;;29.90;20.10;;;;;;;4.44;87.96;99936.36;103136;1326;37240;-72
2022/12/22 05:57:49;;;;;;;33.40;21.00;;;;;;;4.45;87.88;99938.95;103136;1329;37229;-72
2022/12/22 06:00:28;;;;;;;33.20;21.40;;;;;;;4.49;88.03;99943.17;103098;1326;37221;-72
2022/12/22 06:03:04;;;;;;;38.20;23.20;;;;;;;4.51;88.15;99946.07;103120;1330;36380;-75
2022/12/22 06:05:45;;;;;;;34.80;21.20;;;;;;;4.46;88.05;99951.52;102971;1332;36217;-73
2022/12/22 06:08:23;;;;;;;33.10;21.40;;;;;;;4.47;88.17;99946.84;103162;1326;36782;-74
2022/12/22 06:10:59;;;;;;;32.30;20.50;;;;;;;4.46;88.21;99949.61;103203;1329;36712;-74
2022/12/22 06:13:36;;;;;;;31.60;19.50;;;;;;;4.49;88.58;99955.61;103127;1326;36646;-74
2022/12/22 06:16:11;;;;;;;33.70;21.30;;;;;;;4.50;88.16;99954.89;103162;1326;37329;-74
2022/12/22 06:18:45;;;;;;;34.90;22.20;;;;;;;4.55;88.49;99949.96;103166;1327;37231;-74
2022/12/22 06:21:23;;;;;;;33.80;21.20;;;;;;;4.57;88.43;99954.73;103100;1328;38322;-71
2022/12/22 06:23:59;;;;;;;31.90;20.20;;;;;;;4.55;88.34;99955.31;103178;1329;37485;-70
2022/12/22 06:26:37;;;;;;;28.10;18.80;;;;;;;4.56;88.40;99959.27;103141;1326;37228;-70
2022/12/22 06:29:15;;;;;;;31.80;20.30;;;;;;;4.58;88.56;99959.23;103157;1329;37238;-73
2022/12/22 06:31:52;;;;;;;33.20;20.40;;;;;;;4.60;88.39;99961.94;103177;1325;37877;-73
2022/12/22 06:34:30;;;;;;;32.10;20.40;;;;;;;4.61;88.68;99963.48;103154;1325;37167;-73
2022/12/22 06:37:09;;;;;;;30.70;20.00;;;;;;;4.62;88.18;99965.70;103151;1325;37189;-73
2022/12/22 06:39:47;;;;;;;27.80;18.80;;;;;;;4.62;88.16;99965.53;103095;1329;37380;-73
2022/12/22 06:45:14;;;;;;;29.90;20.20;;;;;;;4.58;87.86;99963.02;103101;1326;36227;-73
2022/12/22 06:47:51;;;;;;;32.00;20.30;;;;;;;4.57;88.15;99961.31;103087;1326;37286;-73
2022/12/22 06:50:31;;;;;;;30.00;19.80;;;;;;;4.58;88.42;99966.31;103104;1329;36561;-72
2022/12/22 06:53:11;;;;;;;30.70;19.40;;;;;;;4.56;87.91;99969.46;103096;1329;37365;-72
2022/12/22 06:55:49;;;;;;;28.20;18.90;;;;;;;4.55;88.04;99970.85;103132;1330;38712;-74
2022/12/22 06:58:26;;;;;;;27.90;19.00;;;;;;;4.54;88.03;99970.70;103125;1326;37255;-74
2022/12/22 07:01:02;;;;;;;29.00;19.40;;;;;;;4.59;88.22;99971.81;103190;1325;37743;-73
2022/12/22 07:03:37;;;;;;;31.60;20.30;;;;;;;4.61;88.18;99974.52;103156;1329;36236;-73
2022/12/22 07:06:12;;;;;;;31.50;19.50;;;;;;;4.58;88.05;99972.86;103157;1327;37450;-73
2022/12/22 07:08:49;;;;;;;27.70;18.40;;;;;;;4.60;88.04;99970.59;103128;1327;37185;-73
2022/12/22 07:11:29;;;;;;;28.70;19.20;;;;;;;4.62;88.04;99966.73;103145;1325;37531;-73
2022/12/22 07:14:06;;;;;;;32.90;19.80;;;;;;;4.63;88.08;99962.92;103166;1326;37120;-71
2022/12/22 07:16:42;;;;;;;31.50;20.40;;;;;;;4.62;87.86;99966.39;103142;1326;38061;-72
2022/12/22 07:19:20;;;;;;;30.70;20.20;;;;;;;4.61;88.07;99969.36;103108;1329;37569;-74
2022/12/22 07:22:00;;;;;;;30.50;20.30;;;;;;;4.62;88.03;99963.29;103100;1315;37593;-72
2022/12/22 07:24:35;;;;;;;30.40;19.50;;;;;;;4.63;87.68;99962.40;103116;1330;37154;-74
2022/12/22 07:27:16;;;;;;;31.60;20.60;;;;;;;4.65;87.86;99959.61;103097;1326;37335;-72
2022/12/22 07:29:52;;;;;;;32.70;20.80;;;;;;;4.66;87.77;99951.29;103116;1318;38462;-72
2022/12/22 07:32:31;;;;;;;32.70;21.10;;;;;;;4.66;87.92;99941.94;103036;1331;37253;-73
2022/12/22 07:35:07;;;;;;;31.50;19.40;;;;;;;4.67;87.98;99935.36;103095;1329;37645;-72
2022/12/22 07:37:42;;;;;;;30.50;19.70;;;;;;;4.69;88.19;99935.17;103133;1329;37601;-71
2022/12/22 07:40:19;;;;;;;31.50;19.20;;;;;;;4.72;87.87;99936.99;103110;1329;36862;-72
2022/12/22 07:43:00;;;;;;;28.60;19.10;;;;;;;4.73;87.77;99939.23;103153;1329;37175;-72
2022/12/22 07:45:36;;;;;;;38.30;20.60;;;;;;;4.73;87.90;99942.34;103139;1329;37239;-74
2022/12/22 07:51:12;;;;;;;26.00;17.30;;;;;;;4.76;87.72;99937.95;103082;1329;38855;-72
2022/12/22 07:53:52;;;;;;;29.00;18.70;;;;;;;4.75;87.60;99931.41;103193;1326;37108;-72
2022/12/22 07:56:32;;;;;;;26.00;17.80;;;;;;;4.71;87.51;99935.79;103145;1329;37354;-69
2022/12/22 07:59:12;;;;;;;28.50;18.70;;;;;;;4.75;87.61;99927.43;103121;1329;37252;-72
2022/12/22 08:02:00;;;;;;;30.00;20.40;;;;;;;4.80;87.77;99922.83;103125;1330;37253;-72
2022/12/22 08:04:35;;;;;;;31.00;19.40;;;;;;;4.83;87.71;99920.35;102490;1329;913507;-73
2022/12/22 08:07:13;;;;;;;28.90;18.60;;;;;;;4.87;87.75;99916.96;103117;1327;36220;-72
2022/12/22 08:09:51;;;;;;;27.80;19.30;;;;;;;4.93;87.74;99913.90;103100;1325;37262;-72
2022/12/22 08:12:28;;;;;;;32.50;20.20;;;;;;;4.89;87.44;99907.23;103099;1329;37308;-70
2022/12/22 08:15:10;;;;;;;31.40;21.20;;;;;;;4.89;87.35;99903.11;102868;1326;323989;-71
2022/12/22 08:17:47;;;;;;;30.00;19.20;;;;;;;4.87;87.17;99898.48;103044;1326;172870;-71
2022/12/22 08:20:25;;;;;;;29.10;18.70;;;;;;;4.83;87.04;99901.33;103059;1326;37234;-72
2022/12/22 08:23:02;;;;;;;30.30;19.50;;;;;;;4.82;87.01;99890.46;103092;1329;36531;-72
2022/12/22 08:25:49;;;;;;;30.90;19.70;;;;;;;4.84;87.32;99891.29;103107;1326;37513;-71
2022/12/22 08:28:23;;;;;;;30.10;20.20;;;;;;;4.85;87.08;99893.50;103148;1326;36219;-73
2022/12/22 08:31:01;;;;;;;25.60;18.30;;;;;;;4.85;87.50;99890.92;103006;1329;174990;-72
2022/12/22 08:33:41;;;;;;;28.90;17.90;;;;;;;4.87;87.27;99886.91;103112;1329;37227;-72
2022/12/22 08:36:21;;;;;;;30.00;19.40;;;;;;;4.86;87.13;99882.59;103097;1326;37724;-70
2022/12/22 08:39:01;;;;;;;27.70;19.40;;;;;;;4.85;87.15;99877.27;103013;1332;37374;-73
2022/12/22 08:41:53;;;;;;;26.60;18.10;;;;;;;4.89;87.29;99879.08;103162;1326;37669;-74
2022/12/22 08:44:31;;;;;;;27.40;17.80;;;;;;;4.96;87.44;99884.96;103162;1326;37468;-70
2022/12/22 08:47:06;;;;;;;27.00;18.30;;;;;;;5.01;87.66;99886.58;103144;1326;36278;-72
2022/12/22 08:49:46;;;;;;;28.70;19.30;;;;;;;5.08;87.73;99890.03;103114;1329;38415;-72
2022/12/22 08:52:26;;;;;;;26.10;17.00;;;;;;;5.14;87.87;99891.83;103053;1329;174974;-72
2022/12/22 08:55:00;;;;;;;25.20;16.50;;;;;;;5.19;87.79;99894.98;103009;1326;172553;-73
2022/12/22 08:57:38;;;;;;;24.90;17.20;;;;;;;5.35;88.28;99889.08;103182;1326;38260;-74
2022/12/22 09:00:19;;;;;;;25.00;17.50;;;;;;;5.54;88.32;99887.57;103076;1329;37328;-73
2022/12/22 09:02:54;;;;;;;26.50;18.20;;;;;;;5.69;88.17;99887.52;103151;1329;37116;-72
2022/12/22 09:05:32;;;;;;;28.10;17.90;;;;;;;5.83;87.73;99885.61;103172;1326;37141;-71
2022/12/22 09:08:08;;;;;;;26.10;17.00;;;;;;;5.97;87.88;99884.39;103128;1329;37124;-71
2022/12/22 09:10:46;;;;;;;24.70;17.80;;;;;;;6.06;87.43;99886.56;103134;1329;37123;-72
2022/12/22 09:13:24;;;;;;;29.70;18.90;;;;;;;6.11;86.99;99891.10;103125;1329;37122;-73
2022/12/22 09:16:06;;;;;;;30.10;19.20;;;;;;;6.11;86.54;99894.92;103099;1326;37131;-71
2022/12/22 09:18:41;;;;;;;25.00;17.30;;;;;;;6.08;86.24;99887.03;103179;1329;37600;-70
2022/12/22 09:21:15;;;;;;;24.70;17.50;;;;;;;6.06;86.09;99882.76;103192;1329;37230;-72
2022/12/22 09:23:50;;;;;;;25.70;17.80;;;;;;;6.07;85.73;99885.51;103192;1325;37752;-73
2022/12/22 09:26:30;;;;;;;26.50;17.80;;;;;;;6.05;85.72;99873.09;103193;1329;38110;-71
2022/12/22 09:29:06;;;;;;;27.90;18.20;;;;;;;6.06;85.67;99872.55;103114;1330;38373;-70
2022/12/22 09:31:41;;;;;;;26.30;18.70;;;;;;;6.06;85.65;99870.45;103176;1329;37880;-73
2022/12/22 09:34:24;;;;;;;26.00;17.30;;;;;;;6.04;85.10;99862.55;103202;1329;37219;-72
2022/12/22 09:37:05;;;;;;;24.40;17.20;;;;;;;6.01;85.10;99858.48;103103;1326;36141;-73
2022/12/22 09:39:42;;;;;;;28.10;18.80;;;;;;;6.01;85.02;99853.64;103102;1329;37319;-71
2022/12/22 09:42:24;;;;;;;26.30;19.90;;;;;;;6.04;85.28;99850.59;103108;1326;36487;-73
2022/12/22 09:45:04;;;;;;;25.30;18.00;;;;;;;6.08;85.17;99842.86;103105;1329;38316;-73
2022/12/22 09:47:44;;;;;;;26.10;17.80;;;;;;;6.06;84.89;99838.40;103085;1329;37452;-74
2022/12/22 09:50:22;;;;;;;26.10;18.20;;;;;;;6.13;85.20;99844.45;102958;1326;172788;-73
2022/12/22 09:53:02;;;;;;;28.60;18.90;;;;;;;6.24;85.21;99842.44;103154;1326;36748;-72
2022/12/22 09:55:42;;;;;;;26.80;19.00;;;;;;;6.26;84.47;99829.19;103142;1325;37381;-73
2022/12/22 09:58:22;;;;;;;29.60;18.90;;;;;;;6.24;84.45;99819.38;103168;1329;36218;-73
2022/12/22 10:01:03;;;;;;;26.70;17.00;;;;;;;6.28;84.44;99817.02;103105;1326;37564;-75
2022/12/22 10:03:48;;;;;;;25.20;17.70;;;;;;;6.29;84.26;99816.48;103137;1329;37399;-72
2022/12/22 10:06:25;;;;;;;28.10;18.70;;;;;;;6.30;84.32;99813.65;103137;1329;37399;-72
2022/12/22 10:09:00;;;;;;;29.00;19.20;;;;;;;6.34;83.86;99810.41;103140;1330;36274;-73
2022/12/22 10:11:36;;;;;;;27.30;18.20;;;;;;;6.38;83.97;99809.44;103143;1329;37605;-73
2022/12/22 10:14:13;;;;;;;24.60;16.40;;;;;;;6.40;83.66;99815.61;103160;1329;38428;-74
2022/12/22 10:16:54;;;;;;;25.30;18.10;;;;;;;6.37;83.26;99804.63;103083;1325;37228;-73
2022/12/22 10:19:32;;;;;;;27.60;17.60;;;;;;;6.38;83.45;99805.80;103147;1326;37616;-73
2022/12/22 10:22:10;;;;;;;27.80;18.30;;;;;;;6.41;83.46;99801.39;103112;1326;37410;-71
2022/12/22 10:24:48;;;;;;;27.90;18.30;;;;;;;6.38;82.62;99789.17;103108;1326;37265;-73
2022/12/22 10:27:25;;;;;;;26.50;17.40;;;;;;;6.36;82.98;99785.59;103181;1326;36281;-72
2022/12/22 10:30:25;;;;;;;25.30;17.10;;;;;;;6.36;82.97;99779.02;103140;1326;37243;-71
2022/12/22 10:33:16;;;;;;;28.50;18.00;;;;;;;6.36;83.11;99784.02;103162;1329;37244;-71
2022/12/22 10:35:53;;;;;;;26.20;17.60;;;;;;;6.33;82.87;99778.59;103131;1315;37437;-70
2022/12/22 10:38:31;;;;;;;26.50;17.50;;;;;;;6.31;82.55;99771.72;103144;1326;37212;-72
2022/12/22 10:41:15;;;;;;;27.10;17.50;;;;;;;6.29;82.52;99772.11;103092;1330;37363;-73
2022/12/22 10:43:52;;;;;;;26.00;18.00;;;;;;;6.25;82.29;99770.36;103103;1327;37447;-73
2022/12/22 10:46:38;;;;;;;28.00;18.80;;;;;;;6.22;82.40;99760.38;103099;1329;37249;-73
2022/12/22 10:49:25;;;;;;;25.90;17.70;;;;;;;6.20;82.45;99753.34;103120;1329;36440;-71
2022/12/22 10:52:16;;;;;;;27.70;18.20;;;;;;;6.22;82.79;99752.42;103113;1329;37210;-71
2022/12/22 10:54:55;;;;;;;28.80;18.60;;;;;;;6.22;82.56;99748.43;103108;1326;37292;-70
2022/12/22 10:57:31;;;;;;;28.40;19.70;;;;;;;6.22;82.70;99744.11;103151;1326;37118;-71
2022/12/22 11:00:23;;;;;;;25.80;17.40;;;;;;;6.17;82.13;99738.00;103130;1329;37242;-72
2022/12/22 11:02:58;;;;;;;26.70;18.80;;;;;;;6.12;82.32;99732.62;103170;1329;37106;-72
2022/12/22 11:05:38;;;;;;;28.00;18.10;;;;;;;6.12;82.50;99730.70;103135;1325;37105;-73
2022/12/22 11:08:23;;;;;;;29.20;19.20;;;;;;;6.14;82.11;99736.38;103106;1330;37360;-72
2022/12/22 11:11:04;;;;;;;32.30;19.50;;;;;;;6.10;82.20;99735.63;103147;1326;36147;-74
2022/12/22 11:13:57;;;;;;;28.60;18.60;;;;;;;6.07;82.41;99727.56;103152;1326;36865;-72
2022/12/22 11:16:40;;;;;;;32.10;19.00;;;;;;;6.08;82.45;99730.16;103156;1329;37162;-73
2022/12/22 11:19:37;;;;;;;27.70;19.20;;;;;;;6.08;82.52;99724.78;103134;1329;37037;-70
2022/12/22 11:22:23;;;;;;;31.10;19.40;;;;;;;6.10;82.33;99717.45;103127;1325;37844;-72
2022/12/22 11:25:15;;;;;;;32.30;20.40;;;;;;;6.09;82.45;99711.08;103088;1329;36889;-72
2022/12/22 11:28:01;;;;;;;32.40;20.20;;;;;;;6.11;82.38;99716.20;103130;1326;37439;-72
2022/12/22 11:30:46;;;;;;;29.80;20.20;;;;;;;6.09;82.36;99711.77;103126;1329;36736;-74
2022/12/22 11:33:31;;;;;;;31.40;19.60;;;;;;;6.07;82.02;99707.50;103120;1329;36246;-73
2022/12/22 11:36:08;;;;;;;32.20;20.70;;;;;;;6.05;82.11;99695.43;103091;1329;37273;-72
2022/12/22 11:38:50;;;;;;;31.70;20.80;;;;;;;6.08;82.29;99684.80;103100;1323;37417;-74
2022/12/22 11:41:42;;;;;;;34.30;20.80;;;;;;;6.05;82.00;99677.42;103126;1326;37393;-72
2022/12/22 11:44:41;;;;;;;31.70;20.50;;;;;;;6.05;82.19;99677.94;103140;1329;36210;-72
2022/12/22 11:47:30;;;;;;;32.70;20.20;;;;;;;6.09;82.18;99675.39;103120;1326;37364;-72
2022/12/22 11:50:27;;;;;;;;;;;;;;;6.08;81.96;99673.16;103146;1326;38350;-71
2022/12/22 11:53:14;;;;;;;35.30;21.70;;;;;;;6.03;82.29;99670.55;102987;1330;174900;-72
2022/12/22 11:55:58;;;;;;;34.70;21.10;;;;;;;6.04;82.31;99673.30;103101;1326;37392;-73
2022/12/22 11:58:57;;;;;;;31.70;20.50;;;;;;;6.00;81.69;99679.48;103110;1324;36242;-78
2022/12/22 12:01:50;;;;;;;32.60;20.80;;;;;;;5.96;81.99;99678.89;103083;1325;37687;-72
2022/12/22 12:04:51;;;;;;;34.80;22.20;;;;;;;5.95;81.88;99672.21;102988;1332;37014;-75
2022/12/22 12:07:32;;;;;;;32.60;21.20;;;;;;;5.89;81.81;99667.85;103076;1329;37355;-72
2022/12/22 12:10:17;;;;;;;33.90;21.40;;;;;;;5.91;82.11;99666.40;103073;1330;40731;-72
2022/12/22 12:13:05;;;;;;;31.40;20.80;;;;;;;5.90;82.08;99660.73;103104;1326;37496;-73
2022/12/22 12:15:45;;;;;;;33.30;21.10;;;;;;;5.89;82.11;99657.12;103143;1329;37122;-73
2022/12/22 12:18:59;;;;;;;37.00;23.20;;;;;;;5.89;82.36;99648.45;103158;1329;37275;-71
2022/12/22 12:21:40;;;;;;;39.00;23.60;;;;;;;5.90;82.55;99648.77;103060;1327;37235;-75
2022/12/22 12:24:41;;;;;;;35.40;21.50;;;;;;;5.89;82.49;99641.16;103115;1330;37911;-73
2022/12/22 12:27:26;;;;;;;31.90;21.50;;;;;;;5.85;82.44;99639.56;103116;1329;37219;-72
2022/12/22 12:30:05;;;;;;;29.90;21.30;;;;;;;5.85;82.62;99638.19;103114;1326;36308;-72
2022/12/22 12:32:45;;;;;;;35.20;23.20;;;;;;;5.86;82.75;99638.85;103146;1326;37364;-74
2022/12/22 12:35:38;;;;;;;35.50;22.30;;;;;;;5.89;82.88;99629.92;102480;1327;922504;-73
2022/12/22 12:38:21;;;;;;;30.80;19.80;;;;;;;5.87;82.68;99630.70;103058;1329;37217;-72
2022/12/22 12:41:06;;;;;;;32.70;21.00;;;;;;;5.82;82.78;99627.73;103086;1329;37139;-71
2022/12/22 12:43:42;;;;;;;31.70;21.20;;;;;;;5.85;83.02;99630.03;103096;1329;37220;-73
2022/12/22 12:47:08;;;;;;;30.50;20.60;;;;;;;5.93;83.27;99623.77;103119;1310;37327;-73
2022/12/22 12:50:40;;;;;;;32.20;20.60;;;;;;;5.95;83.15;99620.23;103050;1330;38877;-72
2022/12/22 12:53:15;;;;;;;29.40;19.40;;;;;;;5.96;82.84;99619.72;103161;1329;37234;-71
2022/12/22 12:56:09;;;;;;;29.20;18.90;;;;;;;5.93;82.73;99614.95;103150;1326;38002;-74
2022/12/22 12:59:00;;;;;;;28.10;18.00;;;;;;;5.92;82.57;99621.20;103094;1329;37202;-72
2022/12/22 13:02:01;;;;;;;25.60;18.30;;;;;;;5.91;82.54;99627.45;103115;1329;37227;-73
2022/12/22 13:05:27;;;;;;;28.10;18.30;;;;;;;5.85;82.01;99625.58;103102;1326;37243;-73
2022/12/22 13:08:24;;;;;;;;;;;;;;;5.74;81.82;99628.48;103132;1326;37402;-72
2022/12/22 13:11:37;;;;;;;24.80;17.20;;;;;;;5.63;81.90;99626.89;103111;1326;37232;-73
2022/12/22 13:14:31;;;;;;;27.50;17.80;;;;;;;5.58;81.85;99633.46;103134;1315;37106;-70
2022/12/22 13:17:49;;;;;;;28.60;19.30;;;;;;;5.53;81.99;99632.21;102519;1326;912118;-72
2022/12/22 13:20:30;;;;;;;28.00;18.60;;;;;;;5.49;82.10;99630.43;102946;1333;37537;-71
2022/12/22 13:23:12;;;;;;;29.30;18.10;;;;;;;5.39;81.94;99637.46;103151;1329;37276;-73
2022/12/22 13:25:58;;;;;;;25.30;16.40;;;;;;;5.32;82.19;99629.87;103125;1326;37208;-74
2022/12/22 13:28:35;;;;;;;25.60;17.30;;;;;;;5.26;82.10;99624.34;103119;1329;38399;-72
2022/12/22 13:31:25;;;;;;;25.50;17.20;;;;;;;5.23;81.96;99617.88;103157;1329;37255;-71
2022/12/22 13:34:22;;;;;;;30.10;18.90;;;;;;;5.15;82.11;99618.79;103161;1329;37127;-71
2022/12/22 13:37:04;;;;;;;29.90;18.90;;;;;;;5.05;82.72;99615.45;103125;1330;37122;-72
2022/12/22 13:39:41;;;;;;;26.60;17.80;;;;;;;5.04;82.76;99612.52;103111;1326;36178;-73
2022/12/22 13:42:17;;;;;;;27.60;17.60;;;;;;;5.03;83.13;99610.47;103119;1325;37232;-72
2022/12/22 13:44:53;;;;;;;31.30;19.70;;;;;;;5.02;82.99;99604.28;103084;1326;39069;-72
2022/12/22 13:47:27;;;;;;;31.60;19.10;;;;;;;5.00;83.30;99601.23;103129;1326;37664;-72
2022/12/22 13:50:04;;;;;;;29.40;18.60;;;;;;;4.98;83.35;99603.86;103099;1326;37903;-73
2022/12/22 13:52:38;;;;;;;27.00;17.10;;;;;;;4.94;83.20;99605.17;103086;1329;37116;-71
2022/12/22 13:55:19;;;;;;;26.10;17.20;;;;;;;4.91;83.50;99609.41;103085;1325;37191;-72
2022/12/22 13:57:54;;;;;;;28.70;17.90;;;;;;;4.89;83.54;99601.34;103120;1330;37813;-72
2022/12/22 14:00:29;;;;;;;30.80;18.70;;;;;;;4.86;83.59;99596.59;103101;1329;37222;-72
2022/12/22 14:03:05;;;;;;;28.90;18.80;;;;;;;4.85;84.00;99590.38;103166;1330;37222;-73
2022/12/22 14:08:40;;;;;;;28.80;18.10;;;;;;;4.85;84.28;99578.30;100126;1368;544878;-72
2022/12/22 14:11:21;;;;;;;28.30;17.40;;;;;;;4.84;84.68;99577.64;102438;1339;37220;-73
2022/12/22 14:13:56;;;;;;;26.10;17.30;;;;;;;4.86;84.78;99574.64;102334;1342;37379;-72
2022/12/22 14:16:33;;;;;;;28.30;19.00;;;;;;;4.87;84.79;99564.74;102269;1341;37119;-73
2022/12/22 14:19:13;;;;;;;29.10;19.10;;;;;;;4.90;84.95;99563.82;102292;1340;37243;-72
2022/12/22 14:21:50;;;;;;;31.70;19.10;;;;;;;4.91;85.12;99564.98;102016;1339;479939;-72
2022/12/22 14:24:31;;;;;;;30.00;18.50;;;;;;;4.88;85.27;99564.89;102426;1339;38470;-73
2022/12/22 14:27:23;;;;;;;31.40;18.50;;;;;;;4.86;85.25;99553.90;102362;1336;37236;-70
2022/12/22 14:30:18;;;;;;;28.80;17.40;;;;;;;4.85;85.63;99554.27;102442;1339;37210;-73
2022/12/22 14:32:56;;;;;;;30.30;19.20;;;;;;;4.87;85.61;99560.42;102372;1339;37198;-73
2022/12/22 14:35:32;;;;;;;28.90;18.60;;;;;;;4.94;85.80;99560.09;102470;1335;36652;-72
2022/12/22 14:38:26;;;;;;;30.60;19.60;;;;;;;4.98;85.72;99552.54;102413;1339;37112;-73
2022/12/22 14:41:01;;;;;;;34.00;21.20;;;;;;;4.96;85.83;99541.17;102411;1339;37154;-72
2022/12/22 14:43:37;;;;;;;32.30;18.50;;;;;;;4.96;85.87;99542.55;102580;1332;36225;-73
2022/12/22 14:46:15;;;;;;;28.50;18.70;;;;;;;4.97;86.02;99546.17;102544;1336;37295;-73
2022/12/22 14:48:50;;;;;;;27.50;18.10;;;;;;;4.98;86.03;99542.33;102573;1333;38550;-73
2022/12/22 14:51:29;;;;;;;28.90;18.60;;;;;;;5.01;85.95;99550.02;102468;1336;172829;-72
2022/12/22 14:54:16;;;;;;;;;;;;;;;5.02;86.11;99544.63;102637;1333;37130;-72
2022/12/22 14:56:53;;;;;;;28.40;19.00;;;;;;;5.03;86.14;99539.61;102580;1336;37126;-72
2022/12/22 14:59:34;;;;;;;33.00;20.80;;;;;;;5.01;85.94;99545.02;102939;1330;37455;-73
2022/12/22 15:02:26;;;;;;;29.90;19.50;;;;;;;4.98;85.95;99542.84;102952;1329;37147;-73
2022/12/22 15:05:23;;;;;;;29.80;18.90;;;;;;;4.96;86.25;99542.41;102904;1332;37048;-73
2022/12/22 15:08:01;;;;;;;27.80;18.60;;;;;;;4.88;86.09;99542.59;102918;1329;38439;-73
2022/12/22 15:10:46;;;;;;;27.60;18.10;;;;;;;4.87;85.91;99537.12;102928;1330;37609;-74
2022/12/22 15:13:26;;;;;;;25.60;18.00;;;;;;;4.83;86.21;99536.35;103024;1328;38230;-71
2022/12/22 15:16:00;;;;;;;27.40;19.70;;;;;;;4.81;85.99;99531.06;102949;1332;37125;-74
2022/12/22 15:18:35;;;;;;;32.00;20.40;;;;;;;4.80;86.21;99529.89;102961;1332;37386;-73
2022/12/22 15:21:11;;;;;;;26.10;17.70;;;;;;;4.79;86.47;99534.91;102920;1330;174695;-73
2022/12/22 15:23:48;;;;;;;29.70;18.40;;;;;;;4.75;86.15;99533.13;102302;1329;914720;-71
2022/12/22 15:26:23;;;;;;;28.20;18.40;;;;;;;4.74;86.38;99534.20;103010;1331;37117;-73
2022/12/22 15:28:57;;;;;;;28.20;17.90;;;;;;;4.73;86.54;99530.08;102919;1332;36795;-73
2022/12/22 15:31:31;;;;;;;28.40;19.80;;;;;;;4.74;86.60;99534.20;103040;1328;39552;-72
2022/12/22 15:34:14;;;;;;;29.70;20.10;;;;;;;4.76;86.71;99530.86;103009;1329;37375;-72
2022/12/22 15:36:58;;;;;;;29.60;20.40;;;;;;;4.75;86.77;99524.48;103057;1326;37253;-73
2022/12/22 15:39:33;;;;;;;29.50;19.60;;;;;;;4.71;86.43;99516.50;103061;1327;37233;-72
2022/12/22 15:42:18;;;;;;;27.40;18.60;;;;;;;4.69;86.59;99514.30;103062;1326;37496;-73
2022/12/22 15:44:56;;;;;;;;;;;;;;;4.68;86.88;99514.33;103139;1325;37182;-72
2022/12/22 15:47:35;;;;;;;29.70;19.20;;;;;;;4.61;87.03;99515.88;103137;1328;37123;-73
2022/12/22 15:50:21;;;;;;;26.20;18.70;;;;;;;4.62;86.73;99509.45;103100;1326;37342;-70
2022/12/22 15:53:01;;;;;;;27.40;19.00;;;;;;;4.64;86.85;99503.70;103100;1329;36888;-74
2022/12/22 15:55:36;;;;;;;30.50;19.80;;;;;;;4.68;86.71;99502.74;103051;1326;37597;-73
2022/12/22 15:58:15;;;;;;;30.10;21.00;;;;;;;4.67;86.56;99502.95;103070;1329;37206;-74
2022/12/22 16:00:53;;;;;;;30.20;19.30;;;;;;;4.67;87.05;99503.45;103131;1326;37172;-73